Time;durP1;ratioP1;P1;durP2;ratioP2;P2;SDS_P1;SDS_P2;PMS_P1;PMS_P2;Temp;Humidity;BMP_temperature;BMP_pressure;BME280_temperature;BME280_humidity;BME280_pressure;Samples;Min_cycle;Max_cycle;Signal;HPM_P1;HPM_P2
2024/04/24 00:00:28;;;;;;;40.10;32.40;;;;;;;5.30;100.00;98160.58;109566;1251;59802;-75
2024/04/24 00:03:18;;;;;;;40.90;32.40;;;;;;;5.28;100.00;98149.97;109566;1251;59675;-75
2024/04/24 00:05:44;;;;;;;39.00;30.70;;;;;;;5.26;100.00;98143.37;109562;1251;65576;-74
2024/04/24 00:08:11;;;;;;;38.60;30.70;;;;;;;5.25;100.00;98139.91;109577;1251;59864;-75
2024/04/24 00:10:37;;;;;;;39.50;30.40;;;;;;;5.24;100.00;98137.02;109514;1251;60194;-75
2024/04/24 00:13:03;;;;;;;38.70;29.50;;;;;;;5.22;100.00;98139.38;109528;1251;59744;-75
2024/04/24 00:15:30;;;;;;;34.50;29.00;;;;;;;5.21;100.00;98140.36;109575;1251;59763;-75
2024/04/24 00:17:56;;;;;;;39.10;31.20;;;;;;;5.17;100.00;98137.77;109518;1251;60237;-75
2024/04/24 00:20:22;;;;;;;38.40;31.30;;;;;;;5.11;100.00;98135.11;109593;1251;60290;-75
2024/04/24 00:22:49;;;;;;;42.60;32.60;;;;;;;5.04;100.00;98136.55;109559;1253;59982;-76
2024/04/24 00:25:15;;;;;;;40.30;33.10;;;;;;;5.00;100.00;98133.66;109538;1251;59896;-75
2024/04/24 00:27:42;;;;;;;38.60;30.10;;;;;;;4.96;100.00;98127.05;109589;1251;59773;-75
2024/04/24 00:30:12;;;;;;;44.30;33.30;;;;;;;4.91;100.00;98123.77;109627;1251;60067;-75
2024/04/24 00:32:39;;;;;;;;;;;;;;;4.89;100.00;98120.06;109604;1251;59865;-75
2024/04/24 00:35:05;;;;;;;44.20;33.20;;;;;;;4.84;100.00;98121.19;109335;1251;73946;-74
2024/04/24 00:37:32;;;;;;;41.20;32.40;;;;;;;4.81;100.00;98120.98;109493;1253;59829;-74
2024/04/24 00:39:58;;;;;;;44.80;33.60;;;;;;;4.79;100.00;98116.90;109565;1251;59685;-75
2024/04/24 00:42:24;;;;;;;44.30;32.80;;;;;;;4.77;100.00;98114.91;109243;1251;60174;-75
2024/04/24 00:44:51;;;;;;;42.40;32.10;;;;;;;4.76;100.00;98110.77;109557;1251;59849;-75
2024/04/24 00:47:18;;;;;;;48.10;34.80;;;;;;;4.74;100.00;98107.17;109543;1251;59923;-74
2024/04/24 00:49:47;;;;;;;47.20;34.50;;;;;;;4.74;100.00;98107.33;109528;1251;59795;-75
2024/04/24 00:52:14;;;;;;;41.30;32.80;;;;;;;4.75;100.00;98106.91;109557;1251;59627;-75
2024/04/24 00:54:41;;;;;;;44.50;33.90;;;;;;;4.76;100.00;98108.45;109586;1251;66840;-75
2024/04/24 00:57:07;;;;;;;44.90;35.10;;;;;;;4.77;100.00;98102.45;109557;1251;61359;-74
2024/04/24 00:59:35;;;;;;;47.40;35.10;;;;;;;4.77;100.00;98099.77;109516;1251;64066;-75
2024/04/24 01:02:02;;;;;;;46.00;35.10;;;;;;;4.78;100.00;98097.95;109557;1251;59790;-75
2024/04/24 01:04:28;;;;;;;45.70;35.30;;;;;;;4.80;100.00;98094.50;109583;1251;59730;-75
2024/04/24 01:06:54;;;;;;;49.10;38.30;;;;;;;4.82;100.00;98090.88;109505;1250;60382;-74
2024/04/24 01:09:21;;;;;;;44.40;36.10;;;;;;;4.82;100.00;98088.90;109545;1250;59889;-76
2024/04/24 01:11:47;;;;;;;45.30;36.00;;;;;;;4.84;100.00;98085.83;109517;1251;59843;-75
2024/04/24 01:14:13;;;;;;;47.90;38.20;;;;;;;4.84;100.00;98081.76;109485;1251;60083;-75
2024/04/24 01:16:41;;;;;;;46.90;35.90;;;;;;;4.86;100.00;98079.38;109539;1251;60200;-75
2024/04/24 01:19:37;;;;;;;46.50;33.90;;;;;;;4.88;100.00;98074.16;109564;1251;65705;-75
2024/04/24 01:22:21;;;;;;;47.50;35.80;;;;;;;4.88;100.00;98067.45;109548;1250;59887;-76
2024/04/24 01:24:58;;;;;;;41.60;34.40;;;;;;;4.90;100.00;98067.71;109193;1251;63878;-76
2024/04/24 01:27:24;;;;;;;45.70;35.10;;;;;;;4.91;100.00;98062.73;109562;1251;59735;-74
2024/04/24 01:29:50;;;;;;;39.70;32.20;;;;;;;4.91;100.00;98062.73;109552;1251;59856;-75
2024/04/24 01:32:17;;;;;;;49.10;35.70;;;;;;;4.90;100.00;98058.03;109516;1251;60306;-76
2024/04/24 01:34:43;;;;;;;45.30;33.50;;;;;;;4.90;100.00;98057.70;109552;1251;59753;-75
2024/04/24 01:37:10;;;;;;;47.30;35.50;;;;;;;4.89;100.00;98054.22;109550;1251;59871;-76
2024/04/24 01:39:36;;;;;;;44.80;33.90;;;;;;;4.87;100.00;98048.34;109520;1251;60131;-75
2024/04/24 01:42:02;;;;;;;44.60;35.40;;;;;;;4.87;100.00;98049.98;109548;1251;60108;-75
2024/04/24 01:44:29;;;;;;;44.30;34.60;;;;;;;4.84;100.00;98049.04;109546;1251;59796;-75
2024/04/24 01:46:55;;;;;;;45.60;35.80;;;;;;;4.83;100.00;98045.20;109553;1251;59855;-74
2024/04/24 01:49:21;;;;;;;42.10;34.50;;;;;;;4.82;100.00;98037.02;109549;1251;59854;-74
2024/04/24 01:51:48;;;;;;;47.00;34.40;;;;;;;4.82;100.00;98040.16;109556;1251;59809;-74
2024/04/24 01:54:14;;;;;;;45.70;35.50;;;;;;;4.83;100.00;98036.80;109563;1251;59933;-77
2024/04/24 01:56:40;;;;;;;46.70;35.80;;;;;;;4.81;100.00;98033.89;109551;1251;59791;-74
2024/04/24 01:59:06;;;;;;;48.30;36.10;;;;;;;4.81;100.00;98031.94;109588;1251;59810;-75
2024/04/24 02:01:33;;;;;;;48.00;35.80;;;;;;;4.81;100.00;98032.45;109573;1255;60014;-75
2024/04/24 02:03:59;;;;;;;46.90;36.40;;;;;;;4.81;100.00;98028.08;109543;1251;60166;-75
2024/04/24 02:06:26;;;;;;;47.80;37.60;;;;;;;4.81;100.00;98022.45;109563;1251;59797;-73
2024/04/24 02:08:52;;;;;;;57.00;39.50;;;;;;;4.82;100.00;98021.20;109522;1251;59814;-75
2024/04/24 02:11:18;;;;;;;49.80;36.40;;;;;;;4.83;100.00;98018.31;109542;1251;59853;-75
2024/04/24 02:13:44;;;;;;;48.20;36.60;;;;;;;4.83;100.00;98021.81;109532;1251;59888;-74
2024/04/24 02:16:11;;;;;;;51.10;37.10;;;;;;;4.85;100.00;98025.21;109529;1251;59792;-74
2024/04/24 02:18:37;;;;;;;48.20;34.70;;;;;;;4.87;100.00;98023.89;109212;1251;60307;-74
2024/04/24 02:21:07;;;;;;;48.80;35.60;;;;;;;4.89;100.00;98025.89;109570;1251;59748;-76
2024/04/24 02:23:34;;;;;;;48.40;35.20;;;;;;;4.91;100.00;98022.80;109610;1250;60833;-74
2024/04/24 02:26:10;;;;;;;43.40;32.90;;;;;;;4.92;100.00;98019.53;109482;1251;64020;-75
2024/04/24 02:28:36;;;;;;;47.00;34.10;;;;;;;4.94;100.00;98010.80;109367;1251;59782;-75
2024/04/24 02:31:03;;;;;;;45.90;34.30;;;;;;;4.95;100.00;98007.02;109534;1251;59873;-75
2024/04/24 02:33:29;;;;;;;43.80;32.40;;;;;;;4.98;100.00;98005.44;109554;1251;60158;-74
2024/04/24 02:35:55;;;;;;;43.10;32.80;;;;;;;5.00;100.00;97999.36;109381;1251;59874;-76
2024/04/24 02:38:21;;;;;;;45.10;33.40;;;;;;;5.00;100.00;97998.80;109552;1251;60015;-74
2024/04/24 02:40:48;;;;;;;41.80;32.30;;;;;;;5.01;100.00;98000.51;109525;1251;60075;-75
2024/04/24 02:43:14;;;;;;;42.30;31.90;;;;;;;5.01;100.00;98000.48;109352;1251;60283;-75
2024/04/24 02:45:40;;;;;;;38.40;31.80;;;;;;;5.01;100.00;97996.09;109533;1251;59796;-75
2024/04/24 02:48:07;;;;;;;38.60;31.30;;;;;;;5.03;100.00;97995.11;109514;1251;59796;-75
2024/04/24 02:50:33;;;;;;;42.90;33.10;;;;;;;5.04;100.00;97994.34;109548;1251;59868;-74
2024/04/24 02:53:00;;;;;;;43.30;32.90;;;;;;;5.04;100.00;97989.39;109519;1254;59807;-74
2024/04/24 02:55:27;;;;;;;43.50;34.00;;;;;;;5.05;100.00;97987.57;109554;1251;60175;-76
2024/04/24 02:57:53;;;;;;;40.30;31.90;;;;;;;5.06;100.00;97984.52;109564;1251;60220;-76
2024/04/24 03:00:19;;;;;;;39.50;29.90;;;;;;;5.06;100.00;97982.40;109601;1251;59816;-74
2024/04/24 03:02:46;;;;;;;44.20;32.10;;;;;;;5.08;100.00;97984.61;109519;1251;60102;-74
2024/04/24 03:05:12;;;;;;;41.80;31.60;;;;;;;5.09;100.00;97982.63;109230;1251;60175;-75
2024/04/24 03:07:39;;;;;;;41.40;31.40;;;;;;;5.10;100.00;97976.95;109576;1251;59799;-75
2024/04/24 03:10:05;;;;;;;38.70;31.10;;;;;;;5.10;100.00;97975.48;109536;1251;59809;-75
2024/04/24 03:12:32;;;;;;;38.60;29.30;;;;;;;5.12;100.00;97973.98;109519;1253;59861;-75
2024/04/24 03:14:58;;;;;;;36.90;28.70;;;;;;;5.13;100.00;97973.55;109605;1251;59814;-76
2024/04/24 03:17:24;;;;;;;40.90;31.00;;;;;;;5.14;100.00;97969.48;109501;1251;59759;-74
2024/04/24 03:19:51;;;;;;;40.60;30.40;;;;;;;5.14;100.00;97971.56;109579;1251;60712;-75
2024/04/24 03:22:17;;;;;;;35.80;28.80;;;;;;;5.14;100.00;97971.54;109590;1251;59731;-74
2024/04/24 03:24:44;;;;;;;38.40;31.10;;;;;;;5.14;100.00;97969.26;109548;1251;59844;-75
2024/04/24 03:27:10;;;;;;;37.10;29.30;;;;;;;5.15;100.00;97966.55;109557;1255;59881;-74
2024/04/24 03:29:38;;;;;;;39.00;29.80;;;;;;;5.16;100.00;97962.65;109584;1251;59783;-76
2024/04/24 03:32:04;;;;;;;38.80;29.70;;;;;;;5.16;100.00;97960.50;109533;1251;59844;-76
2024/04/24 03:34:31;;;;;;;37.80;29.10;;;;;;;5.17;100.00;97955.38;109540;1251;59924;-75
2024/04/24 03:36:57;;;;;;;37.20;27.90;;;;;;;5.17;100.00;97952.19;109554;1251;59825;-75
2024/04/24 03:39:23;;;;;;;34.20;27.10;;;;;;;5.18;100.00;97949.65;109605;1251;60407;-75
2024/04/24 03:41:50;;;;;;;35.10;27.60;;;;;;;5.19;100.00;97952.02;109562;1251;60030;-76
2024/04/24 03:44:16;;;;;;;36.90;28.40;;;;;;;5.21;100.00;97954.73;109588;1251;60294;-75
2024/04/24 03:46:42;;;;;;;36.80;27.40;;;;;;;5.25;100.00;97955.02;108791;1251;1002276;-73
2024/04/24 03:49:08;;;;;;;33.00;24.80;;;;;;;5.26;100.00;97947.36;109553;1251;60178;-74
2024/04/24 03:51:35;;;;;;;37.60;27.70;;;;;;;5.29;100.00;97942.83;109546;1251;59902;-75
2024/04/24 03:54:02;;;;;;;34.40;26.40;;;;;;;5.32;100.00;97943.55;109505;1251;60369;-74
2024/04/24 03:56:28;;;;;;;33.00;27.20;;;;;;;5.32;100.00;97938.72;109566;1251;59664;-75
2024/04/24 03:58:54;;;;;;;34.60;27.20;;;;;;;5.36;100.00;97935.14;109557;1253;60073;-76
2024/04/24 04:01:25;;;;;;;34.80;27.00;;;;;;;5.38;100.00;97931.35;109562;1251;59840;-75
2024/04/24 04:03:51;;;;;;;;;;;;;;;5.40;100.00;97929.46;109587;1251;64125;-75
2024/04/24 04:06:17;;;;;;;34.40;26.00;;;;;;;5.40;100.00;97931.55;109521;1253;60125;-75
2024/04/24 04:08:43;;;;;;;34.30;26.70;;;;;;;5.41;100.00;97932.89;109467;1252;59850;-76
2024/04/24 04:11:10;;;;;;;33.50;25.90;;;;;;;5.44;100.00;97932.38;109539;1253;59845;-75
2024/04/24 04:13:36;;;;;;;34.30;26.80;;;;;;;5.45;100.00;97930.17;109477;1256;60590;-74
2024/04/24 04:16:03;;;;;;;32.40;25.90;;;;;;;5.48;100.00;97931.08;109497;1253;59906;-74
2024/04/24 04:18:29;;;;;;;32.40;25.70;;;;;;;5.49;100.00;97928.14;109464;1252;60063;-76
2024/04/24 04:20:56;;;;;;;30.70;26.60;;;;;;;5.51;100.00;97924.36;109513;1253;60007;-75
2024/04/24 04:23:22;;;;;;;30.50;24.90;;;;;;;5.53;100.00;97926.17;109484;1253;59872;-76
2024/04/24 04:25:48;;;;;;;33.30;25.50;;;;;;;5.54;100.00;97926.29;109329;1253;59952;-74
2024/04/24 04:28:15;;;;;;;35.10;25.90;;;;;;;5.55;100.00;97926.42;109497;1253;59725;-75
2024/04/24 04:30:41;;;;;;;33.60;26.90;;;;;;;5.55;100.00;97923.36;109455;1252;59717;-76
2024/04/24 04:33:07;;;;;;;38.30;29.70;;;;;;;5.56;100.00;97920.67;109472;1254;59855;-74
2024/04/24 04:35:34;;;;;;;31.70;26.20;;;;;;;5.58;100.00;97918.77;109499;1254;59769;-75
2024/04/24 04:38:00;;;;;;;37.10;28.20;;;;;;;5.60;100.00;97919.52;109477;1254;59836;-74
2024/04/24 04:40:27;;;;;;;31.30;26.20;;;;;;;5.61;100.00;97923.15;109502;1252;59950;-74
2024/04/24 04:42:53;;;;;;;35.10;27.00;;;;;;;5.62;100.00;97919.60;109500;1253;59781;-74
2024/04/24 04:45:20;;;;;;;32.70;26.70;;;;;;;5.62;100.00;97920.46;109538;1253;60029;-74
2024/04/24 04:47:46;;;;;;;34.20;25.70;;;;;;;5.63;100.00;97914.61;109538;1253;59816;-75
2024/04/24 04:50:12;;;;;;;33.50;26.60;;;;;;;5.63;100.00;97914.92;109525;1253;59906;-75
2024/04/24 04:52:38;;;;;;;31.70;25.50;;;;;;;5.63;100.00;97907.52;109451;1252;59739;-74
2024/04/24 04:55:05;;;;;;;33.00;27.00;;;;;;;5.67;100.00;97903.72;109485;1254;59897;-74
2024/04/24 04:57:31;;;;;;;31.20;25.70;;;;;;;5.69;100.00;97897.06;109525;1252;60142;-74
2024/04/24 04:59:57;;;;;;;35.40;26.10;;;;;;;5.72;100.00;97896.38;109459;1256;59772;-76
2024/04/24 05:02:24;;;;;;;30.60;25.50;;;;;;;5.75;100.00;97895.01;109482;1252;60249;-74
2024/04/24 05:04:50;;;;;;;34.00;26.70;;;;;;;5.77;100.00;97895.15;109493;1252;60086;-75
2024/04/24 05:07:16;;;;;;;36.60;27.10;;;;;;;5.80;100.00;97891.09;109552;1253;59722;-76
2024/04/24 05:09:43;;;;;;;41.20;29.50;;;;;;;5.83;100.00;97884.94;109523;1254;59880;-75
2024/04/24 05:12:09;;;;;;;41.70;29.50;;;;;;;5.88;100.00;97884.40;109515;1252;59868;-75
2024/04/24 05:14:35;;;;;;;39.70;30.00;;;;;;;5.94;100.00;97880.67;109491;1254;59895;-75
2024/04/24 05:17:02;;;;;;;41.90;30.60;;;;;;;5.99;100.00;97878.79;109500;1252;60052;-74
2024/04/24 05:19:28;;;;;;;41.80;31.20;;;;;;;6.03;100.00;97874.46;109557;1253;60459;-76
2024/04/24 05:21:54;;;;;;;47.70;32.90;;;;;;;6.07;100.00;97870.85;109515;1252;66914;-74
2024/04/24 05:24:21;;;;;;;41.10;32.00;;;;;;;6.13;100.00;97868.16;109468;1254;60510;-75
2024/04/24 05:29:32;;;;;;;41.10;31.20;;;;;;;6.21;100.00;97869.36;109502;1253;59754;-75
2024/04/24 05:31:58;;;;;;;43.00;31.90;;;;;;;6.24;100.00;97867.29;109487;1253;59846;-75
2024/04/24 05:34:24;;;;;;;40.20;29.90;;;;;;;6.28;100.00;97867.33;109462;1254;60076;-74
2024/04/24 05:36:51;;;;;;;42.50;30.10;;;;;;;6.31;100.00;97863.27;109484;1253;59835;-75
2024/04/24 05:39:17;;;;;;;44.00;30.90;;;;;;;6.32;100.00;97864.40;109469;1254;59869;-76
2024/04/24 05:41:43;;;;;;;42.10;31.40;;;;;;;6.36;100.00;97857.95;109429;1254;59914;-74
2024/04/24 05:44:10;;;;;;;42.80;30.30;;;;;;;6.38;100.00;97857.11;109469;1252;59867;-73
2024/04/24 05:46:36;;;;;;;38.00;29.40;;;;;;;6.39;100.00;97858.14;109458;1252;59865;-74
2024/04/24 05:49:02;;;;;;;40.60;31.20;;;;;;;6.42;100.00;97859.88;109461;1254;59783;-75
2024/04/24 05:51:29;;;;;;;38.60;29.10;;;;;;;6.43;100.00;97859.83;109517;1253;59803;-75
2024/04/24 05:53:55;;;;;;;41.90;30.90;;;;;;;6.44;100.00;97855.81;109474;1254;59748;-77
2024/04/24 05:56:21;;;;;;;36.30;29.90;;;;;;;6.47;100.00;97857.38;109472;1254;59994;-77
2024/04/24 05:58:49;;;;;;;36.60;29.70;;;;;;;6.51;100.00;97853.44;109508;1253;60004;-77
2024/04/24 06:01:16;;;;;;;38.20;30.70;;;;;;;6.55;100.00;97855.44;109458;1254;60003;-77
2024/04/24 06:03:42;;;;;;;38.00;29.50;;;;;;;6.56;100.00;97851.29;109466;1253;59897;-77
2024/04/24 06:06:08;;;;;;;36.10;28.20;;;;;;;6.61;100.00;97854.86;109503;1253;59905;-77
2024/04/24 06:08:34;;;;;;;33.70;28.30;;;;;;;6.68;100.00;97850.31;109475;1254;59828;-75
2024/04/24 06:11:01;;;;;;;37.80;29.80;;;;;;;6.76;100.00;97850.45;109458;1252;60337;-75
2024/04/24 06:13:27;;;;;;;36.40;27.10;;;;;;;6.87;100.00;97848.26;109518;1252;60287;-76
2024/04/24 06:15:53;;;;;;;35.00;27.50;;;;;;;7.00;100.00;97850.88;109147;1254;60216;-77
2024/04/24 06:18:20;;;;;;;36.40;27.80;;;;;;;7.14;100.00;97849.54;109447;1254;59779;-75
2024/04/24 06:20:46;;;;;;;36.40;28.90;;;;;;;7.28;100.00;97851.36;109431;1254;59851;-76
2024/04/24 06:23:12;;;;;;;38.30;28.70;;;;;;;7.44;100.00;97850.02;109246;1252;59898;-76
2024/04/24 06:25:39;;;;;;;34.50;28.10;;;;;;;7.57;100.00;97847.13;109491;1253;59817;-74
2024/04/24 06:28:05;;;;;;;36.60;29.00;;;;;;;7.71;100.00;97845.04;109439;1253;59746;-76
2024/04/24 06:30:31;;;;;;;36.50;29.00;;;;;;;7.83;100.00;97841.21;109473;1252;60028;-76
2024/04/24 06:33:01;;;;;;;39.60;30.50;;;;;;;7.89;100.00;97838.90;109479;1254;60037;-75
2024/04/24 06:35:28;;;;;;;37.40;30.80;;;;;;;7.96;100.00;97834.67;109453;1254;66584;-76
2024/04/24 06:37:54;;;;;;;39.70;31.60;;;;;;;8.02;100.00;97834.80;109464;1252;59892;-74
2024/04/24 06:40:20;;;;;;;41.50;32.10;;;;;;;8.06;100.00;97835.17;109245;1252;60027;-76
2024/04/24 06:42:49;;;;;;;41.30;32.40;;;;;;;8.11;100.00;97834.08;109411;1254;60052;-75
2024/04/24 06:45:16;;;;;;;39.20;31.70;;;;;;;8.18;100.00;97833.09;109585;1251;59798;-76
2024/04/24 06:47:42;;;;;;;39.70;30.20;;;;;;;8.19;100.00;97831.91;109536;1251;59805;-76
2024/04/24 06:50:08;;;;;;;36.80;29.00;;;;;;;8.12;100.00;97830.13;109554;1251;59875;-77
2024/04/24 06:52:35;;;;;;;34.70;28.40;;;;;;;8.06;100.00;97831.48;109518;1251;59832;-76
2024/04/24 06:55:01;;;;;;;38.70;29.40;;;;;;;8.02;100.00;97825.05;109494;1251;60095;-75
2024/04/24 06:57:27;;;;;;;34.90;28.00;;;;;;;8.07;100.00;97825.00;109363;1251;60159;-77
2024/04/24 06:59:54;;;;;;;36.50;26.80;;;;;;;8.15;100.00;97821.26;109532;1251;59820;-75
2024/04/24 07:02:20;;;;;;;34.00;27.30;;;;;;;8.20;100.00;97821.45;109499;1251;60091;-77
2024/04/24 07:04:46;;;;;;;33.10;27.00;;;;;;;8.25;100.00;97817.09;109525;1251;60150;-76
2024/04/24 07:07:13;;;;;;;30.60;25.90;;;;;;;8.37;100.00;97813.58;109548;1251;59797;-77
2024/04/24 07:09:39;;;;;;;33.10;26.20;;;;;;;8.44;100.00;97816.45;109553;1251;59768;-76
2024/04/24 07:12:05;;;;;;;35.80;30.00;;;;;;;8.51;100.00;97811.64;109558;1251;59854;-76
2024/04/24 07:14:32;;;;;;;31.00;25.70;;;;;;;8.56;100.00;97810.73;109553;1251;59934;-75
2024/04/24 07:16:58;;;;;;;31.50;25.00;;;;;;;8.62;100.00;97814.70;109521;1251;59830;-76
2024/04/24 07:19:25;;;;;;;30.20;24.20;;;;;;;8.61;100.00;97813.02;109480;1251;60019;-77
2024/04/24 07:21:51;;;;;;;30.50;24.70;;;;;;;8.55;100.00;97809.54;109565;1251;59857;-76
2024/04/24 07:24:18;;;;;;;29.90;24.10;;;;;;;8.48;100.00;97809.59;109545;1251;59775;-76
2024/04/24 07:26:44;;;;;;;29.10;23.70;;;;;;;8.43;100.00;97813.35;109534;1251;60374;-76
2024/04/24 07:29:11;;;;;;;28.20;22.40;;;;;;;8.37;100.00;97814.44;109539;1251;59879;-77
2024/04/24 07:31:38;;;;;;;29.60;24.00;;;;;;;8.33;100.00;97811.02;109531;1251;59734;-76
2024/04/24 07:34:04;;;;;;;29.80;24.20;;;;;;;8.36;100.00;97809.91;109535;1251;59886;-77
2024/04/24 07:36:30;;;;;;;27.70;23.10;;;;;;;8.43;100.00;97803.37;109564;1251;60289;-76
2024/04/24 07:38:57;;;;;;;28.80;23.10;;;;;;;8.57;100.00;97804.27;109563;1251;59797;-76
2024/04/24 07:41:23;;;;;;;25.30;22.40;;;;;;;8.68;100.00;97804.63;109519;1251;59872;-77
2024/04/24 07:43:49;;;;;;;26.90;23.50;;;;;;;8.73;100.00;97803.35;109511;1251;60052;-75
2024/04/24 07:46:16;;;;;;;25.90;22.40;;;;;;;8.79;100.00;97804.65;109567;1251;59962;-77
2024/04/24 07:48:42;;;;;;;29.10;23.70;;;;;;;8.85;100.00;97802.46;109525;1251;59913;-77
2024/04/24 07:51:08;;;;;;;29.50;24.40;;;;;;;8.91;100.00;97802.11;109358;1251;59907;-76
2024/04/24 07:53:35;;;;;;;27.90;24.40;;;;;;;8.96;100.00;97802.43;109553;1251;59827;-76
2024/04/24 07:56:01;;;;;;;33.70;25.30;;;;;;;8.93;100.00;97801.25;109484;1251;59776;-75
2024/04/24 07:58:32;;;;;;;37.60;26.30;;;;;;;8.88;100.00;97799.20;109514;1251;59879;-76
2024/04/24 08:00:59;;;;;;;36.30;28.60;;;;;;;8.82;100.00;97800.50;109553;1251;66518;-76
2024/04/24 08:03:26;;;;;;;37.20;27.70;;;;;;;8.82;100.00;97800.36;109554;1251;60200;-75
2024/04/24 08:05:53;;;;;;;31.00;25.30;;;;;;;8.84;100.00;97797.58;109554;1251;65288;-75
2024/04/24 08:08:19;;;;;;;36.40;28.30;;;;;;;8.89;100.00;97797.86;109533;1251;59773;-77
2024/04/24 08:10:46;;;;;;;36.90;28.90;;;;;;;8.99;100.00;97794.38;109499;1251;59798;-76
2024/04/24 08:13:12;;;;;;;36.60;27.80;;;;;;;9.15;100.00;97792.06;109535;1251;59874;-76
2024/04/24 08:15:39;;;;;;;31.90;25.90;;;;;;;9.31;100.00;97792.52;109531;1251;59833;-76
2024/04/24 08:18:06;;;;;;;31.90;26.70;;;;;;;9.45;100.00;97787.85;109531;1251;59947;-76
2024/04/24 08:20:33;;;;;;;33.00;27.30;;;;;;;9.59;100.00;97786.73;109534;1251;59776;-75
2024/04/24 08:22:59;;;;;;;31.00;27.10;;;;;;;9.69;100.00;97780.72;109531;1251;59684;-75
2024/04/24 08:25:25;;;;;;;29.50;24.70;;;;;;;9.83;100.00;97781.85;109535;1251;59877;-76
2024/04/24 08:27:52;;;;;;;26.10;23.10;;;;;;;9.92;100.00;97786.81;109537;1251;60043;-76
2024/04/24 08:30:18;;;;;;;27.40;22.80;;;;;;;9.92;100.00;97786.29;109519;1251;59828;-76
2024/04/24 08:32:44;;;;;;;27.50;23.30;;;;;;;9.92;100.00;97785.79;109206;1251;59945;-76
2024/04/24 08:35:11;;;;;;;28.20;24.10;;;;;;;9.93;100.00;97785.98;109552;1251;59977;-76
2024/04/24 08:37:37;;;;;;;26.90;22.90;;;;;;;10.03;100.00;97785.19;109560;1250;59816;-76
2024/04/24 08:40:04;;;;;;;26.40;23.10;;;;;;;10.20;100.00;97778.80;109562;1251;59794;-76
2024/04/24 08:42:31;;;;;;;27.40;23.80;;;;;;;10.48;100.00;97774.45;109231;1251;60142;-76
2024/04/24 08:44:58;;;;;;;24.80;20.50;;;;;;;10.76;100.00;97772.43;109347;1251;60037;-75
2024/04/24 08:47:26;;;;;;;23.60;20.80;;;;;;;10.97;100.00;97766.16;109549;1251;59770;-76
2024/04/24 08:49:53;;;;;;;24.20;20.50;;;;;;;11.13;100.00;97764.01;109315;1251;66882;-76
2024/04/24 08:52:24;;;;;;;25.20;20.10;;;;;;;11.26;100.00;97762.63;109507;1251;60207;-76
2024/04/24 08:54:57;;;;;;;23.50;20.30;;;;;;;11.47;100.00;97759.68;109527;1251;64090;-76
2024/04/24 08:57:26;;;;;;;21.60;19.30;;;;;;;11.65;100.00;97752.23;109479;1251;59883;-75
2024/04/24 08:59:59;;;;;;;22.10;18.80;;;;;;;11.69;100.00;97751.48;109528;1251;59875;-74
2024/04/24 09:02:30;;;;;;;22.00;19.80;;;;;;;11.69;100.00;97751.53;109542;1251;66844;-76
2024/04/24 09:04:58;;;;;;;21.20;19.00;;;;;;;11.58;100.00;97751.35;109554;1251;60147;-75
2024/04/24 09:07:25;;;;;;;23.20;20.70;;;;;;;11.57;100.00;97754.48;109489;1251;62836;-75
2024/04/24 09:09:53;;;;;;;23.10;20.60;;;;;;;11.64;100.00;97751.19;109504;1251;59767;-74
2024/04/24 09:12:21;;;;;;;22.00;19.70;;;;;;;11.75;100.00;97747.56;109515;1251;59949;-75
2024/04/24 09:14:47;;;;;;;22.40;18.50;;;;;;;11.79;100.00;97749.08;109532;1251;66853;-74
2024/04/24 09:17:14;;;;;;;19.80;17.70;;;;;;;11.90;100.00;97746.95;109554;1251;59812;-74
2024/04/24 09:19:40;;;;;;;21.60;19.40;;;;;;;11.95;100.00;97746.16;109559;1251;60274;-75
2024/04/24 09:22:07;;;;;;;22.50;19.70;;;;;;;11.95;100.00;97749.34;109470;1251;59750;-75
2024/04/24 09:24:36;;;;;;;20.90;18.70;;;;;;;12.01;100.00;97747.98;109574;1251;59867;-75
2024/04/24 09:27:02;;;;;;;20.80;18.60;;;;;;;12.13;100.00;97747.85;109613;1251;67297;-76
2024/04/24 09:29:29;;;;;;;21.90;18.90;;;;;;;12.16;100.00;97743.66;109583;1251;59901;-75
2024/04/24 09:31:55;;;;;;;20.90;18.90;;;;;;;12.11;100.00;97742.68;109493;1251;62838;-75
2024/04/24 09:34:25;;;;;;;24.20;21.60;;;;;;;11.98;100.00;97737.80;109519;1251;60066;-75
2024/04/24 09:36:52;;;;;;;;;;;;;;;11.94;100.00;97734.96;109271;1251;59840;-75
2024/04/24 09:39:19;;;;;;;21.10;18.80;;;;;;;11.83;100.00;97733.30;109546;1250;66831;-77
2024/04/24 09:41:48;;;;;;;25.30;19.50;;;;;;;11.72;100.00;97731.67;109502;1251;60317;-75
2024/04/24 09:44:14;;;;;;;22.40;19.40;;;;;;;11.71;100.00;97731.05;109567;1251;64140;-75
2024/04/24 09:47:02;;;;;;;21.10;17.50;;;;;;;11.79;100.00;97727.98;109518;1251;59805;-74
2024/04/24 09:49:29;;;;;;;21.40;19.10;;;;;;;11.95;100.00;97726.20;109581;1251;59925;-76
2024/04/24 09:51:55;;;;;;;20.90;18.10;;;;;;;12.07;100.00;97720.59;109566;1251;76601;-76
2024/04/24 09:54:23;;;;;;;22.70;19.40;;;;;;;12.12;100.00;97715.66;109582;1251;59782;-75
2024/04/24 09:56:54;;;;;;;22.30;20.00;;;;;;;12.14;100.00;97714.56;109603;1251;64106;-74
2024/04/24 09:59:27;;;;;;;21.90;19.50;;;;;;;12.20;100.00;97711.52;109547;1251;59844;-75
2024/04/24 10:02:00;;;;;;;21.10;18.80;;;;;;;12.15;100.00;97705.45;109568;1251;59769;-74
2024/04/24 10:04:29;;;;;;;22.40;18.60;;;;;;;12.02;100.00;97703.96;109599;1251;66570;-76
2024/04/24 10:07:00;;;;;;;18.80;16.20;;;;;;;11.91;100.00;97706.77;109611;1251;59739;-75
2024/04/24 10:09:33;;;;;;;22.00;17.60;;;;;;;11.86;100.00;97706.50;109522;1251;64110;-75
2024/04/24 10:12:04;;;;;;;20.40;17.50;;;;;;;11.80;100.00;97705.84;109552;1251;59823;-75
2024/04/24 10:14:34;;;;;;;19.90;17.80;;;;;;;11.75;100.00;97706.08;109551;1251;60039;-75
2024/04/24 10:17:01;;;;;;;20.10;17.40;;;;;;;11.77;100.00;97704.84;109535;1251;66866;-75
2024/04/24 10:19:29;;;;;;;21.90;17.90;;;;;;;11.84;100.00;97697.81;109545;1251;59789;-74
2024/04/24 10:21:58;;;;;;;20.60;17.50;;;;;;;11.89;100.00;97700.36;109532;1251;64084;-76
2024/04/24 10:24:25;;;;;;;17.70;15.90;;;;;;;11.99;100.00;97696.74;109539;1251;60110;-76
2024/04/24 10:26:54;;;;;;;17.10;15.10;;;;;;;12.13;99.91;97695.95;109478;1251;59781;-75
2024/04/24 10:29:21;;;;;;;17.80;16.00;;;;;;;12.28;99.80;97688.68;109535;1251;65767;-75
2024/04/24 10:31:49;;;;;;;19.30;16.70;;;;;;;12.44;99.12;97694.11;109637;1251;59801;-75
2024/04/24 10:34:17;;;;;;;18.20;16.10;;;;;;;12.58;98.54;97693.14;109505;1251;63776;-75
2024/04/24 10:36:45;;;;;;;16.50;15.00;;;;;;;12.74;97.58;97686.79;109539;1251;59898;-74
2024/04/24 10:39:13;;;;;;;18.20;14.90;;;;;;;12.91;96.43;97685.12;109591;1251;59663;-74
2024/04/24 10:41:43;;;;;;;16.40;14.90;;;;;;;13.10;95.33;97681.98;109532;1251;66856;-75
2024/04/24 10:44:10;;;;;;;18.10;16.20;;;;;;;13.30;93.83;97682.77;109580;1251;60123;-74
2024/04/24 10:46:37;;;;;;;20.70;17.10;;;;;;;13.33;92.82;97680.45;109538;1251;60537;-75
2024/04/24 10:49:06;;;;;;;18.30;16.40;;;;;;;13.49;93.62;97682.69;109530;1251;59836;-75
2024/04/24 10:51:34;;;;;;;18.80;16.70;;;;;;;13.66;93.48;97680.06;109513;1251;59820;-75
2024/04/24 10:54:13;;;;;;;17.90;16.00;;;;;;;13.82;93.97;97677.58;109581;1251;66909;-76
2024/04/24 10:56:43;;;;;;;17.50;15.90;;;;;;;14.07;92.63;97675.96;109587;1251;59827;-76
2024/04/24 10:59:10;;;;;;;17.80;16.10;;;;;;;14.19;92.21;97678.09;109489;1251;64138;-75
2024/04/24 11:01:45;;;;;;;20.60;17.20;;;;;;;14.34;91.80;97676.67;109574;1251;60090;-75
2024/04/24 11:04:12;;;;;;;20.70;17.20;;;;;;;14.40;92.07;97677.86;109576;1251;59722;-74
2024/04/24 11:06:39;;;;;;;18.60;16.70;;;;;;;14.42;91.19;97680.16;109652;1251;66871;-75
2024/04/24 11:09:07;;;;;;;19.40;17.50;;;;;;;14.28;91.08;97679.31;109561;1251;60228;-74
2024/04/24 11:11:33;;;;;;;20.20;18.20;;;;;;;14.23;91.20;97682.08;109474;1251;64176;-76